map of YWK home
YWK - Airport
Location
City:  Wabush, Newfoundland and Labrador, Canada
Name:Wabush Airport
ICAO:CYWK
IATA:YWK

Details
Type:Airport (Airfield)
Use:Public/Civil
Latitude:5255'22"N (52.922778)
Longitude:6651'53"W (-66.864721)
Elevation:1809 ft (551 m)
Variation:19.74W (WMM2015 magnetic declination)
0.19 annual change
Runways:1
Longest:6002 ft (1829 m), paved

Time
Time Zone:UTC-3:30 (DST-2:30)
Local Time:

Weather
METAR:CYWK 131700Z 27008KT 15SM SCT140 BKN240 M16/M22 A3005 RMK AC3CI2 SLP242
TAF:CYWK 131338Z 1314/1402 20008KT P6SM SCT220
BECMG 1314/1316 26008KT
BECMG 1316/1318 26012KT
RMK NXT FCST BY 132000Z

Related Locations
Nearby:
Farthest:YWKS: 11475 mi / 18468 km
Wilkins Runway (Casey), Upper Peterson Glacier, AQ

Find:

   beyond  
but within

Other Information
Maps:
NOTAMs:
Links:
Sources:

  
  • flag of Canada
  • flag of Newfoundland and Labrador
  

Airport Diagram

Airport diagram for YWK

Airport diagram PDF

Sectional Chart

Flight Planning
at skyvector.com

Satellite Image

Google Maps Satellite view

 

Copyright © 2004-2018 Karl L. Swartz. All rights reserved.
The Great Circle Mapper name and logo are trademarks of the Great Circle Mapper.
All other trademarks mentioned herein belong to their respective owners.
Please see credits for attibutions and further copyright information.

  Follow gcmap on Facebook Follow gcmap on Twitter Follow gcmap on Google+ GCmap on LinkedIn

hCard Microformat

Geo Microformat